createdAt,value
2023-01-20T00:01:49.078Z,100340.46
2023-01-20T00:04:20.620Z,100338.80
2023-01-20T00:06:49.315Z,100330.92
2023-01-20T00:09:18.939Z,100331.98
2023-01-20T00:11:47.616Z,100333.23
2023-01-20T00:14:16.341Z,100334.17
2023-01-20T00:16:44.605Z,100338.16
2023-01-20T00:19:14.721Z,100342.12
2023-01-20T00:21:43.657Z,100342.97
2023-01-20T00:24:12.113Z,100348.61
2023-01-20T00:26:40.260Z,100355.58
2023-01-20T00:29:09.474Z,100366.67
2023-01-20T00:31:38.658Z,100379.77
2023-01-20T00:34:06.960Z,100384.20
2023-01-20T00:36:35.657Z,100387.01
2023-01-20T00:39:05.122Z,100387.67
2023-01-20T00:41:33.352Z,100384.84
2023-01-20T00:44:01.832Z,100381.34
2023-01-20T00:46:30.604Z,100389.23
2023-01-20T00:48:58.803Z,100387.08
2023-01-20T00:51:26.983Z,100382.98
2023-01-20T00:53:56.093Z,100378.65
2023-01-20T00:56:25.339Z,100368.16
2023-01-20T00:58:55.617Z,100374.20
2023-01-20T01:01:24.268Z,100386.27
2023-01-20T01:03:54.590Z,100386.50
2023-01-20T01:06:23.958Z,100368.95
2023-01-20T01:08:53.202Z,100361.64
2023-01-20T01:11:21.448Z,100364.02
2023-01-20T01:13:49.652Z,100364.96
2023-01-20T01:16:18.042Z,100363.27
2023-01-20T01:18:46.481Z,100357.85
2023-01-20T01:21:17.415Z,100364.52
2023-01-20T01:23:45.701Z,100368.02
2023-01-20T01:26:14.599Z,100367.83
2023-01-20T01:28:43.194Z,100366.02
2023-01-20T01:31:11.862Z,100356.84
2023-01-20T01:33:40.671Z,100356.31
2023-01-20T01:36:13.948Z,100359.11
2023-01-20T01:38:42.595Z,100354.08
2023-01-20T01:41:13.551Z,100356.02
2023-01-20T01:44:05.625Z,100360.27
2023-01-20T01:46:35.418Z,100356.06
2023-01-20T01:49:10.442Z,100353.55
2023-01-20T01:51:46.914Z,100360.83
2023-01-20T01:54:24.948Z,100364.80
2023-01-20T01:56:54.213Z,100362.15
2023-01-20T01:59:22.644Z,100357.64
2023-01-20T02:01:52.711Z,100353.70
2023-01-20T02:04:24.907Z,100359.04
2023-01-20T02:07:19.817Z,100366.65
2023-01-20T02:09:48.411Z,100373.16
2023-01-20T02:12:20.992Z,100368.08
2023-01-20T02:14:53.135Z,100367.95
2023-01-20T02:17:30.449Z,100367.88
2023-01-20T02:20:07.943Z,100367.89
2023-01-20T02:22:42.159Z,100364.82
2023-01-20T02:25:10.444Z,100367.38
2023-01-20T02:28:16.998Z,100362.44
2023-01-20T02:31:07.589Z,100354.69
2023-01-20T02:34:05.140Z,100360.67
2023-01-20T02:36:36.492Z,100354.42
2023-01-20T02:39:13.777Z,100353.77
2023-01-20T02:41:56.090Z,100348.66
2023-01-20T02:44:29.582Z,100344.50
2023-01-20T02:47:06.972Z,100348.96
2023-01-20T02:49:50.910Z,100358.15
2023-01-20T02:52:24.928Z,100361.80
2023-01-20T02:54:57.604Z,100357.39
2023-01-20T02:57:31.108Z,100350.20
2023-01-20T03:00:07.988Z,100355.01
2023-01-20T03:02:40.279Z,100353.62
2023-01-20T03:05:14.656Z,100349.77
2023-01-20T03:07:44.884Z,100347.58
2023-01-20T03:10:18.880Z,100345.83
2023-01-20T03:12:50.270Z,100343.88
2023-01-20T03:15:24.800Z,100341.55
2023-01-20T03:17:53.078Z,100338.20
2023-01-20T03:20:21.258Z,100334.95
2023-01-20T03:22:50.063Z,100336.02
2023-01-20T03:25:20.475Z,100346.23
2023-01-20T03:27:49.581Z,100355.70
2023-01-20T03:30:18.442Z,100355.27
2023-01-20T03:32:50.075Z,100352.89
2023-01-20T03:35:19.069Z,100355.30
2023-01-20T03:37:47.529Z,100355.02
2023-01-20T03:40:16.375Z,100359.58
2023-01-20T03:42:57.604Z,100363.13
2023-01-20T03:45:59.709Z,100358.31
2023-01-20T03:49:01.385Z,100362.60
2023-01-20T03:51:41.242Z,100350.36
2023-01-20T03:54:12.788Z,100351.00
2023-01-20T03:56:43.836Z,100348.38
2023-01-20T03:59:14.791Z,100353.73
2023-01-20T04:01:45.301Z,100356.20
2023-01-20T04:04:19.867Z,100357.36
2023-01-20T04:06:51.296Z,100359.52
2023-01-20T04:09:29.278Z,100368.34
2023-01-20T04:11:58.915Z,100361.64
2023-01-20T04:14:27.190Z,100361.27
2023-01-20T04:16:59.324Z,100362.48
2023-01-20T04:19:27.641Z,100357.92
2023-01-20T04:22:17.820Z,100370.30
2023-01-20T04:24:58.537Z,100367.17
2023-01-20T04:27:26.970Z,100368.24
2023-01-20T04:29:55.485Z,100366.75
2023-01-20T04:32:24.153Z,100373.40
2023-01-20T04:34:53.657Z,100373.27
2023-01-20T04:37:22.059Z,100376.26
2023-01-20T04:39:50.232Z,100377.48
2023-01-20T04:42:18.402Z,100368.84
2023-01-20T04:44:46.994Z,100369.36
2023-01-20T04:47:15.273Z,100371.43
2023-01-20T04:49:43.557Z,100378.89
2023-01-20T04:52:11.953Z,100379.48
2023-01-20T04:54:40.425Z,100381.02
2023-01-20T04:57:08.916Z,100390.98
2023-01-20T04:59:37.406Z,100383.98
2023-01-20T05:02:05.809Z,100374.34
2023-01-20T05:04:34.169Z,100368.86
2023-01-20T05:07:02.556Z,100370.33
2023-01-20T05:09:30.835Z,100373.55
2023-01-20T05:11:59.833Z,100379.34
2023-01-20T05:14:28.229Z,100386.77
2023-01-20T05:16:56.701Z,100383.20
2023-01-20T05:19:25.089Z,100378.80
2023-01-20T05:21:53.268Z,100375.47
2023-01-20T05:24:21.857Z,100365.70
2023-01-20T05:26:50.444Z,100365.77
2023-01-20T05:29:18.935Z,100362.33
2023-01-20T05:31:47.394Z,100363.29
2023-01-20T05:34:16.828Z,100362.08
2023-01-20T05:36:45.214Z,100369.78
2023-01-20T05:39:13.287Z,100370.42
2023-01-20T05:41:41.979Z,100373.05
2023-01-20T05:44:10.365Z,100378.73
2023-01-20T05:46:39.113Z,100373.67
2023-01-20T05:49:07.642Z,100363.50
2023-01-20T05:51:36.028Z,100375.16
2023-01-20T05:54:04.707Z,100380.89
2023-01-20T05:56:33.106Z,100390.43
2023-01-20T05:59:02.271Z,100390.08
2023-01-20T06:01:30.526Z,100387.95
2023-01-20T06:03:58.886Z,100385.30
2023-01-20T06:06:27.253Z,100394.81
2023-01-20T06:08:55.537Z,100393.33
2023-01-20T06:11:24.148Z,100398.80
2023-01-20T06:13:52.482Z,100394.06
2023-01-20T06:16:21.246Z,100396.73
2023-01-20T06:18:49.486Z,100396.45
2023-01-20T06:21:17.870Z,100400.98
2023-01-20T06:23:46.260Z,100406.51
2023-01-20T06:26:15.153Z,100407.34
2023-01-20T06:28:45.305Z,100409.81
2023-01-20T06:31:16.814Z,100407.95
2023-01-20T06:33:45.241Z,100399.30
2023-01-20T06:36:15.958Z,100400.39
2023-01-20T06:38:48.659Z,100414.33
2023-01-20T06:41:19.368Z,100409.00
2023-01-20T06:43:47.959Z,100408.52
2023-01-20T06:46:16.834Z,100398.91
2023-01-20T06:48:46.161Z,100405.73
2023-01-20T06:51:20.302Z,100412.53
2023-01-20T06:53:48.666Z,100424.55
2023-01-20T06:56:17.556Z,100426.95
2023-01-20T06:58:46.262Z,100427.45
2023-01-20T07:01:26.425Z,100430.98
2023-01-20T07:03:56.091Z,100431.19
2023-01-20T07:06:38.499Z,100429.77
2023-01-20T07:09:15.708Z,100419.31
2023-01-20T07:11:44.710Z,100421.19
2023-01-20T07:14:13.088Z,100427.48
2023-01-20T07:16:41.300Z,100432.23
2023-01-20T07:19:09.858Z,100429.86
2023-01-20T07:21:38.140Z,100429.46
2023-01-20T07:24:06.991Z,100424.57
2023-01-20T07:26:35.526Z,100418.73
2023-01-20T07:29:04.219Z,100419.61
2023-01-20T07:31:34.501Z,100424.16
2023-01-20T07:34:03.280Z,100424.71
2023-01-20T07:36:31.864Z,100430.32
2023-01-20T07:39:00.135Z,100427.27
2023-01-20T07:41:28.386Z,100428.50
2023-01-20T07:43:56.980Z,100436.35
2023-01-20T07:46:25.463Z,100438.08
2023-01-20T07:48:53.652Z,100431.66
2023-01-20T07:51:21.931Z,100436.03
2023-01-20T07:53:52.186Z,100430.64
2023-01-20T07:56:23.439Z,100438.35
2023-01-20T07:58:53.758Z,100438.49
2023-01-20T08:01:24.931Z,100444.83
2023-01-20T08:03:53.972Z,100444.39
2023-01-20T08:06:25.018Z,100453.54
2023-01-20T08:08:54.405Z,100454.25
2023-01-20T08:11:23.019Z,100465.20
2023-01-20T08:13:51.820Z,100459.65
2023-01-20T08:16:20.311Z,100468.33
2023-01-20T08:18:49.769Z,100471.59
2023-01-20T08:21:24.331Z,100469.59
2023-01-20T08:23:55.798Z,100468.20
2023-01-20T08:26:25.356Z,100468.98
2023-01-20T08:28:54.509Z,100474.02
2023-01-20T08:31:24.924Z,100470.83
2023-01-20T08:33:55.044Z,100471.04
2023-01-20T08:36:29.985Z,100476.31
2023-01-20T08:39:02.806Z,100471.73
2023-01-20T08:41:34.431Z,100472.13
2023-01-20T08:44:06.502Z,100475.16
2023-01-20T08:46:36.015Z,100475.16
2023-01-20T08:49:16.994Z,100466.81
2023-01-20T08:51:45.405Z,100470.80
2023-01-20T08:54:15.112Z,100468.35
2023-01-20T08:56:43.477Z,100466.17
2023-01-20T08:59:12.489Z,100466.51
2023-01-20T09:01:42.312Z,100460.45
2023-01-20T09:04:11.176Z,100464.86
2023-01-20T09:06:40.800Z,100463.92
2023-01-20T09:09:09.661Z,100451.40
2023-01-20T09:11:39.965Z,100460.41
2023-01-20T09:14:08.403Z,100459.66
2023-01-20T09:16:36.684Z,100460.06
2023-01-20T09:19:04.959Z,100460.75
2023-01-20T09:21:33.252Z,100461.80
2023-01-20T09:24:01.424Z,100466.32
2023-01-20T09:26:38.483Z,100457.02
2023-01-20T09:29:10.886Z,100455.37
2023-01-20T09:31:44.675Z,100453.44
2023-01-20T09:34:19.651Z,100443.50
2023-01-20T09:36:53.331Z,100446.19
2023-01-20T09:39:40.954Z,100444.79
2023-01-20T09:42:51.742Z,100434.05
2023-01-20T09:45:25.734Z,100423.52
2023-01-20T09:48:15.197Z,100423.86
2023-01-20T09:51:16.005Z,100419.61
2023-01-20T09:53:44.387Z,100415.79
2023-01-20T09:56:17.089Z,100417.17
2023-01-20T09:58:53.544Z,100406.85
2023-01-20T10:01:43.910Z,100407.12
2023-01-20T10:04:12.417Z,100407.34
2023-01-20T10:06:46.229Z,100405.92
2023-01-20T10:09:42.138Z,100394.61
2023-01-20T10:12:18.677Z,100393.58
2023-01-20T10:14:55.290Z,100389.98
2023-01-20T10:17:39.214Z,100393.13
2023-01-20T10:20:10.740Z,100395.06
2023-01-20T10:22:41.818Z,100386.49
2023-01-20T10:25:17.671Z,100385.64
2023-01-20T10:28:19.206Z,100381.91
2023-01-20T10:30:48.519Z,100378.30
2023-01-20T10:33:29.243Z,100379.38
2023-01-20T10:36:00.024Z,100372.21
2023-01-20T10:38:54.093Z,100370.38
2023-01-20T10:41:33.647Z,100370.56
2023-01-20T10:44:04.366Z,100361.95
2023-01-20T10:46:51.859Z,100353.00
2023-01-20T10:49:40.186Z,100348.02
2023-01-20T10:52:40.127Z,100342.64
2023-01-20T10:55:50.273Z,100330.46
2023-01-20T10:58:25.720Z,100327.36
2023-01-20T11:00:55.518Z,100329.39
2023-01-20T11:03:25.636Z,100325.59
2023-01-20T11:05:54.455Z,100333.44
2023-01-20T11:08:27.442Z,100338.62
2023-01-20T11:11:00.330Z,100336.71
2023-01-20T11:13:28.526Z,100337.59
2023-01-20T11:16:02.756Z,100335.73
2023-01-20T11:18:32.227Z,100331.59
2023-01-20T11:21:10.137Z,100335.39
2023-01-20T11:23:53.455Z,100326.64
2023-01-20T11:26:33.430Z,100324.14
2023-01-20T11:29:29.098Z,100325.99
2023-01-20T11:31:59.838Z,100322.17
2023-01-20T11:34:48.610Z,100322.04
2023-01-20T11:37:25.777Z,100317.23
2023-01-20T11:40:00.770Z,100315.04
2023-01-20T11:42:45.064Z,100318.59
2023-01-20T11:45:27.265Z,100316.68
2023-01-20T11:48:03.430Z,100310.81
2023-01-20T11:51:02.099Z,100311.69
2023-01-20T11:53:32.838Z,100313.50
2023-01-20T11:56:06.059Z,100313.73
2023-01-20T11:58:51.639Z,100311.56
2023-01-20T12:01:24.954Z,100307.04
2023-01-20T12:04:31.521Z,100300.80
2023-01-20T12:07:05.678Z,100297.87
2023-01-20T12:09:42.128Z,100292.95
2023-01-20T12:12:13.405Z,100291.70
2023-01-20T12:15:15.550Z,100284.49
2023-01-20T12:17:56.319Z,100285.35
2023-01-20T12:20:53.173Z,100285.09
2023-01-20T12:23:46.081Z,100269.39
2023-01-20T12:26:17.354Z,100260.09
2023-01-20T12:29:02.619Z,100256.88
2023-01-20T12:31:32.846Z,100254.77
2023-01-20T12:34:05.524Z,100259.63
2023-01-20T12:37:02.255Z,100256.45
2023-01-20T12:40:09.013Z,100264.48
2023-01-20T12:43:03.389Z,100266.52
2023-01-20T12:45:47.535Z,100269.34
2023-01-20T12:48:28.093Z,100268.92
2023-01-20T12:51:24.119Z,100271.54
2023-01-20T12:54:48.249Z,100267.28
2023-01-20T12:57:45.098Z,100269.88
2023-01-20T13:00:32.417Z,100269.86
2023-01-20T13:03:38.971Z,100271.90
2023-01-20T13:06:37.876Z,100275.21
2023-01-20T13:09:31.100Z,100272.70
2023-01-20T13:12:24.387Z,100264.19
2023-01-20T13:15:02.971Z,100263.86
2023-01-20T13:17:34.032Z,100273.55
2023-01-20T13:20:04.990Z,100280.41
2023-01-20T13:22:34.621Z,100289.23
2023-01-20T13:25:05.110Z,100285.33
2023-01-20T13:27:37.788Z,100285.07
2023-01-20T13:30:08.517Z,100290.26
2023-01-20T13:32:43.317Z,100284.71
2023-01-20T13:35:18.002Z,100280.77
2023-01-20T13:38:01.775Z,100274.05
2023-01-20T13:40:33.003Z,100266.42
2023-01-20T13:43:02.380Z,100264.46
2023-01-20T13:45:30.762Z,100261.02
2023-01-20T13:48:08.558Z,100261.08
2023-01-20T13:50:42.234Z,100256.85
2023-01-20T13:53:10.545Z,100258.52
2023-01-20T13:55:44.220Z,100260.74
2023-01-20T13:58:33.713Z,100259.71
2023-01-20T14:01:05.301Z,100256.71
2023-01-20T14:03:37.952Z,100255.24
2023-01-20T14:06:12.181Z,100253.58
2023-01-20T14:08:43.906Z,100259.72
2023-01-20T14:11:13.654Z,100253.86
2023-01-20T14:13:51.019Z,100243.94
2023-01-20T14:16:23.092Z,100239.79
2023-01-20T14:18:54.763Z,100239.23
2023-01-20T14:21:26.491Z,100240.30
2023-01-20T14:23:54.815Z,100240.76
2023-01-20T14:26:27.595Z,100240.88
2023-01-20T14:28:58.947Z,100243.25
2023-01-20T14:31:45.645Z,100242.81
2023-01-20T14:34:26.827Z,100245.73
2023-01-20T14:37:01.374Z,100247.85
2023-01-20T14:39:30.611Z,100240.30
2023-01-20T14:42:00.989Z,100243.70
2023-01-20T14:44:35.322Z,100238.20
2023-01-20T14:47:04.507Z,100243.63
2023-01-20T14:49:36.570Z,100244.34
2023-01-20T14:52:12.527Z,100250.70
2023-01-20T14:54:46.957Z,100259.66
2023-01-20T14:57:20.559Z,100261.51
2023-01-20T14:59:59.687Z,100266.39
2023-01-20T15:02:33.549Z,100264.20
2023-01-20T15:05:02.672Z,100268.20
2023-01-20T15:07:30.932Z,100264.70
2023-01-20T15:10:10.015Z,100264.02
2023-01-20T15:12:51.999Z,100277.27
2023-01-20T15:15:23.043Z,100275.80
2023-01-20T15:18:09.543Z,100280.58
2023-01-20T15:20:41.331Z,100280.66
2023-01-20T15:23:35.783Z,100286.10
2023-01-20T15:26:23.819Z,100290.92
2023-01-20T15:28:52.509Z,100296.45
2023-01-20T15:31:21.307Z,100290.38
2023-01-20T15:33:50.557Z,100297.14
2023-01-20T15:36:30.149Z,100306.20
2023-01-20T15:38:58.735Z,100307.23
2023-01-20T15:41:27.231Z,100311.50
2023-01-20T15:43:55.709Z,100308.20
2023-01-20T15:46:25.113Z,100305.44
2023-01-20T15:48:53.497Z,100303.91
2023-01-20T15:51:21.681Z,100301.50
2023-01-20T15:53:49.856Z,100303.97
2023-01-20T15:56:25.523Z,100313.94
2023-01-20T15:58:54.504Z,100311.30
2023-01-20T16:01:26.816Z,100317.01
2023-01-20T16:03:58.230Z,100323.29
2023-01-20T16:06:34.439Z,100319.45
2023-01-20T16:09:13.520Z,100320.52
2023-01-20T16:11:44.873Z,100324.10
2023-01-20T16:14:13.153Z,100324.05
2023-01-20T16:16:41.336Z,100329.05
2023-01-20T16:19:13.615Z,100328.78
2023-01-20T16:21:44.432Z,100332.00
2023-01-20T16:24:14.161Z,100328.44
2023-01-20T16:26:45.962Z,100334.14
2023-01-20T16:29:14.315Z,100333.20
2023-01-20T16:31:42.657Z,100333.67
2023-01-20T16:34:10.871Z,100339.85
2023-01-20T16:36:39.260Z,100345.86
2023-01-20T16:39:07.439Z,100354.88
2023-01-20T16:41:36.901Z,100350.84
2023-01-20T16:44:05.848Z,100348.77
2023-01-20T16:46:34.739Z,100345.55
2023-01-20T16:49:03.877Z,100350.00
2023-01-20T16:51:32.941Z,100348.55
2023-01-20T16:54:01.119Z,100349.15
2023-01-20T16:56:31.960Z,100350.02
2023-01-20T16:59:02.159Z,100336.58
2023-01-20T17:01:30.820Z,100334.15
2023-01-20T17:04:01.732Z,100340.48
2023-01-20T17:06:34.043Z,100338.59
2023-01-20T17:09:05.628Z,100333.11
2023-01-20T17:11:36.707Z,100324.73
2023-01-20T17:14:07.684Z,100322.86
2023-01-20T17:16:37.301Z,100329.11
2023-01-20T17:19:05.973Z,100328.23
2023-01-20T17:21:38.641Z,100328.26
2023-01-20T17:24:07.775Z,100322.54
2023-01-20T17:26:38.061Z,100323.85
2023-01-20T17:29:07.366Z,100329.73
2023-01-20T17:31:37.125Z,100325.56
2023-01-20T17:34:06.965Z,100322.23
2023-01-20T17:36:35.230Z,100319.39
2023-01-20T17:39:05.511Z,100310.15
2023-01-20T17:41:34.634Z,100306.08
2023-01-20T17:44:04.470Z,100308.17
2023-01-20T17:46:32.931Z,100306.81
2023-01-20T17:49:04.827Z,100306.43
2023-01-20T17:51:34.686Z,100311.94
2023-01-20T17:54:04.089Z,100314.86
2023-01-20T17:56:32.991Z,100314.38
2023-01-20T17:59:02.402Z,100317.74
2023-01-20T18:01:32.897Z,100307.84
2023-01-20T18:04:04.456Z,100320.33
2023-01-20T18:06:36.482Z,100322.84
2023-01-20T18:09:07.397Z,100324.77
2023-01-20T18:11:37.474Z,100327.92
2023-01-20T18:14:07.157Z,100330.16
2023-01-20T18:16:38.447Z,100343.23
2023-01-20T18:19:06.971Z,100347.73
2023-01-20T18:21:37.473Z,100349.27
2023-01-20T18:24:07.664Z,100343.80
2023-01-20T18:26:38.757Z,100352.46
2023-01-20T18:29:12.404Z,100356.95
2023-01-20T18:31:40.942Z,100351.66
2023-01-20T18:34:11.917Z,100365.48
2023-01-20T18:36:42.039Z,100354.84
2023-01-20T18:39:22.816Z,100349.83
2023-01-20T18:41:52.205Z,100360.17
2023-01-20T18:44:23.462Z,100364.67
2023-01-20T18:46:51.947Z,100362.66
2023-01-20T18:49:20.231Z,100368.14
2023-01-20T18:51:48.519Z,100365.17
2023-01-20T18:54:20.993Z,100355.95
2023-01-20T18:56:49.476Z,100352.73
2023-01-20T18:59:18.177Z,100351.50
2023-01-20T19:01:46.557Z,100345.96
2023-01-20T19:04:15.450Z,100346.33
2023-01-20T19:06:45.499Z,100349.56
2023-01-20T19:09:16.311Z,100344.19
2023-01-20T19:11:44.795Z,100347.40
2023-01-20T19:14:15.099Z,100346.37
2023-01-20T19:16:49.173Z,100347.19
2023-01-20T19:19:19.387Z,100343.20
2023-01-20T19:21:52.069Z,100343.93
2023-01-20T19:24:21.987Z,100345.80
2023-01-20T19:26:50.351Z,100352.54
2023-01-20T19:29:19.858Z,100351.77
2023-01-20T19:31:49.396Z,100349.90
2023-01-20T19:34:17.857Z,100345.02
2023-01-20T19:36:46.246Z,100341.91
2023-01-20T19:39:14.629Z,100356.23
2023-01-20T19:41:44.041Z,100355.84
2023-01-20T19:44:13.775Z,100348.98
2023-01-20T19:46:42.215Z,100354.27
2023-01-20T19:49:12.305Z,100359.31
2023-01-20T19:51:40.642Z,100353.90
2023-01-20T19:54:13.211Z,100354.73
2023-01-20T19:56:41.815Z,100360.63
2023-01-20T19:59:12.557Z,100361.41
2023-01-20T20:01:40.820Z,100360.29
2023-01-20T20:04:12.852Z,100366.95
2023-01-20T20:06:48.085Z,100364.23
2023-01-20T20:09:20.336Z,100358.41
2023-01-20T20:11:49.622Z,100354.65
2023-01-20T20:14:20.056Z,100363.03
2023-01-20T20:16:49.203Z,100361.38
2023-01-20T20:19:19.470Z,100359.84
2023-01-20T20:21:48.260Z,100356.98
2023-01-20T20:24:18.306Z,100353.94
2023-01-20T20:26:47.442Z,100350.45
2023-01-20T20:29:18.685Z,100351.27
2023-01-20T20:31:47.457Z,100351.04
2023-01-20T20:34:18.712Z,100356.73
2023-01-20T20:36:47.211Z,100362.29
2023-01-20T20:39:17.823Z,100370.02
2023-01-20T20:41:46.836Z,100374.81
2023-01-20T20:44:15.291Z,100379.47
2023-01-20T20:46:44.280Z,100373.75
2023-01-20T20:49:19.220Z,100367.48
2023-01-20T20:51:47.837Z,100369.66
2023-01-20T20:54:17.314Z,100365.98
2023-01-20T20:56:46.116Z,100373.02
2023-01-20T20:59:15.482Z,100381.68
2023-01-20T21:01:43.664Z,100388.14
2023-01-20T21:04:12.513Z,100388.61
2023-01-20T21:06:40.988Z,100389.13
2023-01-20T21:09:09.647Z,100395.43
2023-01-20T21:11:38.643Z,100388.23
2023-01-20T21:14:07.678Z,100402.94
2023-01-20T21:16:36.054Z,100394.85
2023-01-20T21:19:05.424Z,100400.75
2023-01-20T21:21:34.669Z,100403.07
2023-01-20T21:24:03.155Z,100416.36
2023-01-20T21:26:31.644Z,100415.55
2023-01-20T21:29:04.060Z,100417.67
2023-01-20T21:31:34.668Z,100427.52
2023-01-20T21:34:03.819Z,100432.30
2023-01-20T21:36:32.471Z,100431.98
2023-01-20T21:39:00.833Z,100432.14
2023-01-20T21:41:29.826Z,100432.71
2023-01-20T21:44:16.834Z,100425.23
2023-01-20T21:46:45.768Z,100423.96
2023-01-20T21:49:32.663Z,100428.76
2023-01-20T21:52:19.546Z,100424.95
2023-01-20T21:54:48.028Z,100420.92
2023-01-20T21:57:16.529Z,100413.33
2023-01-20T21:59:46.141Z,100414.47
2023-01-20T22:02:15.317Z,100409.64
2023-01-20T22:04:44.128Z,100406.79
2023-01-20T22:07:13.635Z,100397.58
2023-01-20T22:09:42.229Z,100399.58
2023-01-20T22:12:11.388Z,100393.05
2023-01-20T22:14:39.815Z,100387.39
2023-01-20T22:17:09.945Z,100376.36
2023-01-20T22:19:38.813Z,100372.97
2023-01-20T22:22:07.890Z,100371.42
2023-01-20T22:24:36.951Z,100377.63
2023-01-20T22:27:05.528Z,100377.48
2023-01-20T22:29:33.902Z,100376.04
2023-01-20T22:32:04.235Z,100374.84
2023-01-20T22:34:32.416Z,100369.24
2023-01-20T22:37:01.012Z,100365.48
2023-01-20T22:39:29.491Z,100359.02
2023-01-20T22:41:57.683Z,100346.56
2023-01-20T22:44:26.160Z,100345.40
2023-01-20T22:46:54.945Z,100344.80
2023-01-20T22:49:23.345Z,100341.91
2023-01-20T22:51:54.430Z,100341.65
2023-01-20T22:54:22.773Z,100340.27
2023-01-20T22:56:51.246Z,100338.65
2023-01-20T22:59:19.634Z,100338.53
2023-01-20T23:01:48.016Z,100335.99
2023-01-20T23:04:16.505Z,100342.85
2023-01-20T23:06:45.398Z,100351.22
2023-01-20T23:09:14.741Z,100355.73
2023-01-20T23:11:43.201Z,100344.95
2023-01-20T23:14:13.711Z,100344.66
2023-01-20T23:16:43.416Z,100345.30
2023-01-20T23:19:11.933Z,100343.11
2023-01-20T23:21:40.940Z,100339.31
2023-01-20T23:24:10.331Z,100330.94
2023-01-20T23:26:38.918Z,100324.44
2023-01-20T23:29:07.465Z,100321.30
2023-01-20T23:31:35.931Z,100319.60
2023-01-20T23:34:04.585Z,100325.19
2023-01-20T23:36:33.181Z,100325.91
2023-01-20T23:39:01.579Z,100327.13
2023-01-20T23:41:29.946Z,100328.77
2023-01-20T23:43:58.437Z,100336.77
2023-01-20T23:46:26.918Z,100348.10
2023-01-20T23:48:55.514Z,100356.72
2023-01-20T23:51:23.969Z,100355.74
2023-01-20T23:53:52.383Z,100358.59
2023-01-20T23:56:22.711Z,100360.33
2023-01-20T23:58:52.337Z,100358.78
